Terminal Aerodrome Forecast
Issued by NWS Cleveland, OH

Home | Current Version | Previous Version | Graphics & Text | Print | Product List | Glossary On
Versions: 1 2 3 4 5 6 7 8 9 10 11 12 13 14 15 16 17
000
FTUS41 KCLE 211100
TAFMFD
TAF
KMFD 211137Z 2112/2212 VRB03KT P6SM OVC025
      TEMPO 2115/2118 5SM BR SCT025
     FM211800 18004KT P6SM SCT025 BKN060=

USA.gov is the U.S. government's official web portal to all federal, state and local government web resources and services.